This is the latest recevied weather packets stored in our database for station/object KG7QQL. If no packets are shown the sender has not sent any weather packets the latest 10 day(s).
| Time | Temp. | Humidity | Pressure | Rain* | Wind** | Luminosity | Snow |
|---|---|---|---|---|---|---|---|
| 1777707297 | 12.22° C | 81% | - | 0 mm | - | - | - |
| 1777706995 | 12.78° C | 80% | - | 0 mm | - | - | - |
| 1777706692 | 12.78° C | 80% | - | 0 mm | - | - | - |
| 1777706389 | 13.33° C | 77% | - | 0 mm | - | - | - |
| 1777706087 | 12.78° C | 77% | - | 0 mm | - | - | - |
| 1777705785 | 12.78° C | 79% | - | 0 mm | - | - | - |
| 1777705483 | 12.78° C | 79% | - | 0 mm | - | - | - |
| 1777705181 | 12.78° C | 79% | - | 0 mm | - | - | - |
| 1777704880 | 13.33° C | 78% | - | 0 mm | - | - | - |
| 1777704577 | 12.78° C | 78% | - | 0 mm | - | - | - |
| 1777704275 | 13.33° C | 78% | - | 0 mm | - | - | - |
| 1777703972 | 13.33° C | 77% | - | 0 mm | - | - | - |
| 1777703669 | 13.33° C | 75% | - | 0 mm | - | - | - |
| 1777703367 | 13.33° C | 78% | - | 0 mm | - | - | - |
| 1777703064 | 13.33° C | 79% | - | 0 mm | - | - | - |
| 1777702763 | 13.89° C | 79% | - | 0 mm | - | - | - |
| 1777702460 | 13.89° C | 78% | - | 0 mm | - | - | - |
| 1777702156 | 13.89° C | 74% | - | 0 mm | - | - | - |
| 1777701851 | 12.78° C | 81% | - | 0 mm | - | - | - |
| 1777701548 | 12.78° C | 85% | - | 0 mm | - | - | - |
| 1777701245 | 12.78° C | 85% | - | 0 mm | - | - | - |
| 1777700940 | 12.78° C | 86% | - | 0 mm | - | - | - |
| 1777700637 | 12.78° C | 85% | - | 0 mm | - | - | - |
| 1777700335 | 12.78° C | 86% | - | 0 mm | - | - | - |
| 1777700032 | 12.78° C | 86% | - | 0 mm | - | - | - |
* Rain latest hour (hover to see other rain measurements)
** Current wind speed in m/s (hover to see current wind gust speed)